sensor_id;sensor_type;location;lat;lon;timestamp;P1;durP1;ratioP1;P2;durP2;ratioP2
10603;SDS011;5349;41.554;23.274;2023-02-12T00:00:03;46.57;;;21.47;;
10603;SDS011;5349;41.554;23.274;2023-02-12T00:02:31;71.90;;;26.57;;
10603;SDS011;5349;41.554;23.274;2023-02-12T00:04:58;47.57;;;23.63;;
10603;SDS011;5349;41.554;23.274;2023-02-12T00:07:26;39.73;;;22.57;;
10603;SDS011;5349;41.554;23.274;2023-02-12T00:09:55;36.73;;;19.50;;
10603;SDS011;5349;41.554;23.274;2023-02-12T00:12:22;64.03;;;35.33;;
10603;SDS011;5349;41.554;23.274;2023-02-12T00:14:49;39.37;;;18.70;;
10603;SDS011;5349;41.554;23.274;2023-02-12T00:17:16;30.83;;;17.93;;
10603;SDS011;5349;41.554;23.274;2023-02-12T00:19:42;52.20;;;26.23;;
10603;SDS011;5349;41.554;23.274;2023-02-12T00:22:09;58.43;;;25.33;;
10603;SDS011;5349;41.554;23.274;2023-02-12T00:24:38;48.60;;;24.30;;
10603;SDS011;5349;41.554;23.274;2023-02-12T00:27:04;50.13;;;24.43;;
10603;SDS011;5349;41.554;23.274;2023-02-12T00:29:31;44.53;;;23.77;;
10603;SDS011;5349;41.554;23.274;2023-02-12T00:31:58;69.33;;;29.93;;
10603;SDS011;5349;41.554;23.274;2023-02-12T00:34:25;48.30;;;23.57;;
10603;SDS011;5349;41.554;23.274;2023-02-12T00:36:52;47.00;;;23.87;;
10603;SDS011;5349;41.554;23.274;2023-02-12T00:39:19;41.90;;;23.13;;
10603;SDS011;5349;41.554;23.274;2023-02-12T00:41:47;45.47;;;23.27;;
10603;SDS011;5349;41.554;23.274;2023-02-12T00:44:14;44.10;;;23.53;;
10603;SDS011;5349;41.554;23.274;2023-02-12T00:46:41;37.07;;;21.50;;
10603;SDS011;5349;41.554;23.274;2023-02-12T00:49:08;41.00;;;21.47;;
10603;SDS011;5349;41.554;23.274;2023-02-12T00:51:34;47.27;;;22.07;;
10603;SDS011;5349;41.554;23.274;2023-02-12T00:54:01;46.87;;;24.83;;
10603;SDS011;5349;41.554;23.274;2023-02-12T00:56:28;47.00;;;22.87;;
10603;SDS011;5349;41.554;23.274;2023-02-12T00:58:56;45.37;;;21.90;;
10603;SDS011;5349;41.554;23.274;2023-02-12T01:01:23;34.43;;;18.87;;
10603;SDS011;5349;41.554;23.274;2023-02-12T01:03:50;33.97;;;20.00;;
10603;SDS011;5349;41.554;23.274;2023-02-12T01:06:17;61.93;;;25.50;;
10603;SDS011;5349;41.554;23.274;2023-02-12T01:08:44;34.80;;;19.77;;
10603;SDS011;5349;41.554;23.274;2023-02-12T01:11:11;34.83;;;19.33;;
10603;SDS011;5349;41.554;23.274;2023-02-12T01:13:38;41.60;;;22.00;;
10603;SDS011;5349;41.554;23.274;2023-02-12T01:16:08;42.33;;;21.77;;
10603;SDS011;5349;41.554;23.274;2023-02-12T01:18:39;47.17;;;23.43;;
10603;SDS011;5349;41.554;23.274;2023-02-12T01:21:10;39.40;;;20.57;;
10603;SDS011;5349;41.554;23.274;2023-02-12T01:23:38;42.40;;;22.87;;
10603;SDS011;5349;41.554;23.274;2023-02-12T01:26:05;41.87;;;22.47;;
10603;SDS011;5349;41.554;23.274;2023-02-12T01:28:34;108.37;;;31.53;;
10603;SDS011;5349;41.554;23.274;2023-02-12T01:31:01;64.60;;;26.70;;
10603;SDS011;5349;41.554;23.274;2023-02-12T01:33:35;50.73;;;26.00;;
10603;SDS011;5349;41.554;23.274;2023-02-12T01:36:02;42.63;;;22.50;;
10603;SDS011;5349;41.554;23.274;2023-02-12T01:38:29;51.33;;;27.73;;
10603;SDS011;5349;41.554;23.274;2023-02-12T01:41:00;57.90;;;28.23;;
10603;SDS011;5349;41.554;23.274;2023-02-12T01:43:28;62.27;;;30.47;;
10603;SDS011;5349;41.554;23.274;2023-02-12T01:45:57;38.30;;;22.67;;
10603;SDS011;5349;41.554;23.274;2023-02-12T01:48:26;35.93;;;17.97;;
10603;SDS011;5349;41.554;23.274;2023-02-12T01:50:56;30.90;;;17.57;;
10603;SDS011;5349;41.554;23.274;2023-02-12T01:53:26;28.13;;;18.13;;
10603;SDS011;5349;41.554;23.274;2023-02-12T01:55:57;31.47;;;18.37;;
10603;SDS011;5349;41.554;23.274;2023-02-12T01:58:27;28.00;;;17.53;;
10603;SDS011;5349;41.554;23.274;2023-02-12T02:00:59;36.00;;;19.23;;
10603;SDS011;5349;41.554;23.274;2023-02-12T02:03:29;40.53;;;21.27;;
10603;SDS011;5349;41.554;23.274;2023-02-12T02:05:58;46.70;;;23.70;;
10603;SDS011;5349;41.554;23.274;2023-02-12T02:08:29;49.97;;;24.10;;
10603;SDS011;5349;41.554;23.274;2023-02-12T02:10:56;87.67;;;35.67;;
10603;SDS011;5349;41.554;23.274;2023-02-12T02:13:23;120.07;;;47.00;;
10603;SDS011;5349;41.554;23.274;2023-02-12T02:16:09;73.43;;;31.47;;
10603;SDS011;5349;41.554;23.274;2023-02-12T02:18:47;40.00;;;20.47;;
10603;SDS011;5349;41.554;23.274;2023-02-12T02:21:28;34.80;;;18.30;;
10603;SDS011;5349;41.554;23.274;2023-02-12T02:32:55;31.63;;;17.83;;
10603;SDS011;5349;41.554;23.274;2023-02-12T02:35:31;233.67;;;78.30;;
10603;SDS011;5349;41.554;23.274;2023-02-12T02:38:06;352.87;;;113.93;;
10603;SDS011;5349;41.554;23.274;2023-02-12T02:40:45;70.87;;;28.60;;
10603;SDS011;5349;41.554;23.274;2023-02-12T02:46:51;99.97;;;40.47;;
10603;SDS011;5349;41.554;23.274;2023-02-12T02:49:21;52.43;;;25.37;;
10603;SDS011;5349;41.554;23.274;2023-02-12T02:51:52;45.30;;;22.90;;
10603;SDS011;5349;41.554;23.274;2023-02-12T02:54:23;48.07;;;25.37;;
10603;SDS011;5349;41.554;23.274;2023-02-12T02:56:55;42.80;;;23.60;;
10603;SDS011;5349;41.554;23.274;2023-02-12T02:59:27;29.90;;;18.00;;
10603;SDS011;5349;41.554;23.274;2023-02-12T03:02:00;34.23;;;19.07;;
10603;SDS011;5349;41.554;23.274;2023-02-12T03:04:30;31.07;;;18.60;;
10603;SDS011;5349;41.554;23.274;2023-02-12T03:07:02;34.83;;;17.40;;
10603;SDS011;5349;41.554;23.274;2023-02-12T03:09:35;33.57;;;18.87;;
10603;SDS011;5349;41.554;23.274;2023-02-12T03:12:04;38.77;;;21.00;;
10603;SDS011;5349;41.554;23.274;2023-02-12T03:14:36;55.97;;;28.57;;
10603;SDS011;5349;41.554;23.274;2023-02-12T03:17:08;57.53;;;27.43;;
10603;SDS011;5349;41.554;23.274;2023-02-12T03:19:39;63.53;;;30.00;;
10603;SDS011;5349;41.554;23.274;2023-02-12T03:22:08;65.93;;;31.77;;
10603;SDS011;5349;41.554;23.274;2023-02-12T03:24:38;69.73;;;32.00;;
10603;SDS011;5349;41.554;23.274;2023-02-12T03:27:08;154.17;;;52.63;;
10603;SDS011;5349;41.554;23.274;2023-02-12T03:29:41;123.97;;;44.30;;
10603;SDS011;5349;41.554;23.274;2023-02-12T03:32:15;43.63;;;25.23;;
10603;SDS011;5349;41.554;23.274;2023-02-12T03:34:54;189.33;;;54.87;;
10603;SDS011;5349;41.554;23.274;2023-02-12T03:37:31;76.37;;;31.07;;
10603;SDS011;5349;41.554;23.274;2023-02-12T03:40:03;100.57;;;42.80;;
10603;SDS011;5349;41.554;23.274;2023-02-12T03:42:38;39.90;;;21.20;;
10603;SDS011;5349;41.554;23.274;2023-02-12T03:45:13;46.07;;;23.10;;
10603;SDS011;5349;41.554;23.274;2023-02-12T03:47:48;30.13;;;17.33;;
10603;SDS011;5349;41.554;23.274;2023-02-12T03:50:23;32.60;;;18.70;;
10603;SDS011;5349;41.554;23.274;2023-02-12T03:52:56;37.70;;;20.80;;
10603;SDS011;5349;41.554;23.274;2023-02-12T03:55:23;40.63;;;22.73;;
10603;SDS011;5349;41.554;23.274;2023-02-12T03:57:51;44.83;;;25.73;;
10603;SDS011;5349;41.554;23.274;2023-02-12T04:00:25;42.40;;;23.73;;
10603;SDS011;5349;41.554;23.274;2023-02-12T04:02:54;34.67;;;20.77;;
10603;SDS011;5349;41.554;23.274;2023-02-12T04:05:21;45.87;;;23.60;;
10603;SDS011;5349;41.554;23.274;2023-02-12T04:07:49;36.37;;;21.27;;
10603;SDS011;5349;41.554;23.274;2023-02-12T04:10:18;46.43;;;27.77;;
10603;SDS011;5349;41.554;23.274;2023-02-12T04:12:53;51.70;;;28.97;;
10603;SDS011;5349;41.554;23.274;2023-02-12T04:15:36;50.23;;;29.53;;
10603;SDS011;5349;41.554;23.274;2023-02-12T04:18:18;52.17;;;29.73;;
10603;SDS011;5349;41.554;23.274;2023-02-12T04:20:52;51.47;;;29.43;;
10603;SDS011;5349;41.554;23.274;2023-02-12T04:23:30;47.53;;;26.60;;
10603;SDS011;5349;41.554;23.274;2023-02-12T04:26:16;41.77;;;23.00;;
10603;SDS011;5349;41.554;23.274;2023-02-12T04:28:51;42.10;;;23.20;;
10603;SDS011;5349;41.554;23.274;2023-02-12T04:31:32;37.47;;;23.10;;
10603;SDS011;5349;41.554;23.274;2023-02-12T04:34:08;40.80;;;23.63;;
10603;SDS011;5349;41.554;23.274;2023-02-12T04:36:42;42.10;;;24.07;;
10603;SDS011;5349;41.554;23.274;2023-02-12T04:39:14;48.53;;;27.27;;
10603;SDS011;5349;41.554;23.274;2023-02-12T04:41:44;58.10;;;35.87;;
10603;SDS011;5349;41.554;23.274;2023-02-12T04:44:15;66.77;;;38.13;;
10603;SDS011;5349;41.554;23.274;2023-02-12T04:46:43;61.27;;;34.93;;
10603;SDS011;5349;41.554;23.274;2023-02-12T04:49:13;57.87;;;33.23;;
10603;SDS011;5349;41.554;23.274;2023-02-12T04:51:41;55.67;;;32.80;;
10603;SDS011;5349;41.554;23.274;2023-02-12T04:54:09;57.23;;;33.17;;
10603;SDS011;5349;41.554;23.274;2023-02-12T04:56:36;85.50;;;48.20;;
10603;SDS011;5349;41.554;23.274;2023-02-12T04:59:03;84.27;;;47.07;;
10603;SDS011;5349;41.554;23.274;2023-02-12T05:01:33;100.60;;;56.20;;
10603;SDS011;5349;41.554;23.274;2023-02-12T05:04:00;96.60;;;55.03;;
10603;SDS011;5349;41.554;23.274;2023-02-12T05:06:30;95.40;;;52.20;;
10603;SDS011;5349;41.554;23.274;2023-02-12T05:08:59;80.70;;;47.07;;
10603;SDS011;5349;41.554;23.274;2023-02-12T05:11:27;65.63;;;37.93;;
10603;SDS011;5349;41.554;23.274;2023-02-12T05:13:53;46.03;;;27.97;;
10603;SDS011;5349;41.554;23.274;2023-02-12T05:16:21;43.90;;;27.73;;
10603;SDS011;5349;41.554;23.274;2023-02-12T05:18:48;47.50;;;27.73;;
10603;SDS011;5349;41.554;23.274;2023-02-12T05:21:14;58.33;;;34.77;;
10603;SDS011;5349;41.554;23.274;2023-02-12T05:23:43;68.07;;;40.70;;
10603;SDS011;5349;41.554;23.274;2023-02-12T05:26:12;88.20;;;42.50;;
10603;SDS011;5349;41.554;23.274;2023-02-12T05:28:40;82.40;;;43.53;;
10603;SDS011;5349;41.554;23.274;2023-02-12T05:31:08;111.57;;;58.43;;
10603;SDS011;5349;41.554;23.274;2023-02-12T05:33:36;151.53;;;79.83;;
10603;SDS011;5349;41.554;23.274;2023-02-12T05:36:03;88.83;;;48.47;;
10603;SDS011;5349;41.554;23.274;2023-02-12T05:38:31;82.60;;;43.93;;
10603;SDS011;5349;41.554;23.274;2023-02-12T05:41:03;86.17;;;42.80;;
10603;SDS011;5349;41.554;23.274;2023-02-12T05:43:31;92.23;;;44.57;;
10603;SDS011;5349;41.554;23.274;2023-02-12T05:45:58;103.03;;;50.13;;
10603;SDS011;5349;41.554;23.274;2023-02-12T05:48:25;70.83;;;39.37;;
10603;SDS011;5349;41.554;23.274;2023-02-12T05:50:52;69.40;;;38.13;;
10603;SDS011;5349;41.554;23.274;2023-02-12T05:53:19;76.97;;;39.93;;
10603;SDS011;5349;41.554;23.274;2023-02-12T05:55:46;42.83;;;21.63;;
10603;SDS011;5349;41.554;23.274;2023-02-12T05:58:14;58.27;;;31.53;;
10603;SDS011;5349;41.554;23.274;2023-02-12T06:00:41;73.60;;;46.37;;
10603;SDS011;5349;41.554;23.274;2023-02-12T06:03:08;64.57;;;33.80;;
10603;SDS011;5349;41.554;23.274;2023-02-12T06:05:35;245.33;;;128.17;;
10603;SDS011;5349;41.554;23.274;2023-02-12T06:08:02;45.77;;;27.43;;
10603;SDS011;5349;41.554;23.274;2023-02-12T06:10:29;76.07;;;43.77;;
10603;SDS011;5349;41.554;23.274;2023-02-12T06:12:56;81.80;;;47.43;;
10603;SDS011;5349;41.554;23.274;2023-02-12T06:15:24;60.13;;;42.50;;
10603;SDS011;5349;41.554;23.274;2023-02-12T06:17:51;63.53;;;37.00;;
10603;SDS011;5349;41.554;23.274;2023-02-12T06:20:18;63.03;;;38.00;;
10603;SDS011;5349;41.554;23.274;2023-02-12T06:22:45;39.97;;;24.40;;
10603;SDS011;5349;41.554;23.274;2023-02-12T06:25:12;45.10;;;27.30;;
10603;SDS011;5349;41.554;23.274;2023-02-12T06:27:38;77.83;;;43.33;;
10603;SDS011;5349;41.554;23.274;2023-02-12T06:30:06;90.80;;;47.90;;
10603;SDS011;5349;41.554;23.274;2023-02-12T06:32:35;66.87;;;38.00;;
10603;SDS011;5349;41.554;23.274;2023-02-12T06:35:01;60.60;;;38.10;;
10603;SDS011;5349;41.554;23.274;2023-02-12T06:37:28;67.63;;;38.27;;
10603;SDS011;5349;41.554;23.274;2023-02-12T06:39:56;129.20;;;67.63;;
10603;SDS011;5349;41.554;23.274;2023-02-12T06:42:23;69.47;;;40.17;;
10603;SDS011;5349;41.554;23.274;2023-02-12T06:44:50;70.67;;;45.17;;
10603;SDS011;5349;41.554;23.274;2023-02-12T06:47:17;111.73;;;69.13;;
10603;SDS011;5349;41.554;23.274;2023-02-12T06:49:45;56.17;;;35.13;;
10603;SDS011;5349;41.554;23.274;2023-02-12T06:52:12;57.00;;;33.07;;
10603;SDS011;5349;41.554;23.274;2023-02-12T06:54:39;128.93;;;73.83;;
10603;SDS011;5349;41.554;23.274;2023-02-12T06:57:06;66.57;;;38.27;;
10603;SDS011;5349;41.554;23.274;2023-02-12T06:59:34;46.07;;;26.27;;
10603;SDS011;5349;41.554;23.274;2023-02-12T07:02:00;79.93;;;45.83;;
10603;SDS011;5349;41.554;23.274;2023-02-12T07:04:27;84.80;;;49.63;;
10603;SDS011;5349;41.554;23.274;2023-02-12T07:06:56;54.07;;;34.33;;
10603;SDS011;5349;41.554;23.274;2023-02-12T07:09:22;52.03;;;33.33;;
10603;SDS011;5349;41.554;23.274;2023-02-12T07:11:49;55.53;;;32.33;;
10603;SDS011;5349;41.554;23.274;2023-02-12T07:14:16;52.03;;;31.70;;
10603;SDS011;5349;41.554;23.274;2023-02-12T07:16:43;56.90;;;33.43;;
10603;SDS011;5349;41.554;23.274;2023-02-12T07:19:10;58.13;;;33.43;;
10603;SDS011;5349;41.554;23.274;2023-02-12T07:21:38;53.20;;;32.03;;
10603;SDS011;5349;41.554;23.274;2023-02-12T07:24:08;56.90;;;33.37;;
10603;SDS011;5349;41.554;23.274;2023-02-12T07:26:36;52.53;;;30.37;;
10603;SDS011;5349;41.554;23.274;2023-02-12T07:29:03;65.33;;;37.33;;
10603;SDS011;5349;41.554;23.274;2023-02-12T07:31:30;65.90;;;38.70;;
10603;SDS011;5349;41.554;23.274;2023-02-12T07:33:57;74.63;;;41.57;;
10603;SDS011;5349;41.554;23.274;2023-02-12T07:36:26;67.03;;;38.87;;
10603;SDS011;5349;41.554;23.274;2023-02-12T07:38:55;66.60;;;39.97;;
10603;SDS011;5349;41.554;23.274;2023-02-12T07:41:25;68.93;;;41.27;;
10603;SDS011;5349;41.554;23.274;2023-02-12T07:43:53;61.90;;;38.60;;
10603;SDS011;5349;41.554;23.274;2023-02-12T07:46:22;76.97;;;43.90;;
10603;SDS011;5349;41.554;23.274;2023-02-12T07:48:53;79.30;;;47.50;;
10603;SDS011;5349;41.554;23.274;2023-02-12T07:51:21;66.07;;;40.73;;
10603;SDS011;5349;41.554;23.274;2023-02-12T07:53:49;69.67;;;43.23;;
10603;SDS011;5349;41.554;23.274;2023-02-12T07:56:17;51.63;;;31.50;;
10603;SDS011;5349;41.554;23.274;2023-02-12T07:58:49;49.57;;;29.43;;
10603;SDS011;5349;41.554;23.274;2023-02-12T08:01:19;46.83;;;27.63;;
10603;SDS011;5349;41.554;23.274;2023-02-12T08:03:47;48.57;;;28.47;;
10603;SDS011;5349;41.554;23.274;2023-02-12T08:06:17;46.43;;;30.07;;
10603;SDS011;5349;41.554;23.274;2023-02-12T08:08:45;47.23;;;27.77;;
10603;SDS011;5349;41.554;23.274;2023-02-12T08:11:12;56.97;;;32.90;;
10603;SDS011;5349;41.554;23.274;2023-02-12T08:13:40;55.53;;;32.33;;
10603;SDS011;5349;41.554;23.274;2023-02-12T08:16:09;49.77;;;30.63;;
10603;SDS011;5349;41.554;23.274;2023-02-12T08:18:38;55.37;;;34.07;;
10603;SDS011;5349;41.554;23.274;2023-02-12T08:21:06;56.07;;;32.53;;
10603;SDS011;5349;41.554;23.274;2023-02-12T08:23:34;56.77;;;34.90;;
10603;SDS011;5349;41.554;23.274;2023-02-12T08:26:05;52.00;;;33.70;;
10603;SDS011;5349;41.554;23.274;2023-02-12T08:28:34;52.23;;;33.27;;
10603;SDS011;5349;41.554;23.274;2023-02-12T08:31:02;53.27;;;33.43;;
10603;SDS011;5349;41.554;23.274;2023-02-12T08:33:31;36.50;;;25.13;;
10603;SDS011;5349;41.554;23.274;2023-02-12T08:36:02;57.13;;;29.90;;
10603;SDS011;5349;41.554;23.274;2023-02-12T08:38:31;44.90;;;28.57;;
10603;SDS011;5349;41.554;23.274;2023-02-12T08:41:01;44.00;;;27.37;;
10603;SDS011;5349;41.554;23.274;2023-02-12T08:43:28;36.40;;;23.87;;
10603;SDS011;5349;41.554;23.274;2023-02-12T08:46:00;38.27;;;25.17;;
10603;SDS011;5349;41.554;23.274;2023-02-12T08:48:27;37.27;;;23.97;;
10603;SDS011;5349;41.554;23.274;2023-02-12T08:50:56;33.87;;;20.57;;
10603;SDS011;5349;41.554;23.274;2023-02-12T08:53:29;52.97;;;32.30;;
10603;SDS011;5349;41.554;23.274;2023-02-12T08:55:56;50.43;;;31.47;;
10603;SDS011;5349;41.554;23.274;2023-02-12T08:58:23;38.27;;;25.13;;
10603;SDS011;5349;41.554;23.274;2023-02-12T09:00:50;32.30;;;22.03;;
10603;SDS011;5349;41.554;23.274;2023-02-12T09:03:17;26.83;;;19.30;;
10603;SDS011;5349;41.554;23.274;2023-02-12T09:05:44;31.77;;;20.53;;
10603;SDS011;5349;41.554;23.274;2023-02-12T09:08:19;21.77;;;14.70;;
10603;SDS011;5349;41.554;23.274;2023-02-12T09:10:46;19.63;;;13.30;;
10603;SDS011;5349;41.554;23.274;2023-02-12T09:13:13;26.03;;;15.67;;
10603;SDS011;5349;41.554;23.274;2023-02-12T09:15:41;20.27;;;13.33;;
10603;SDS011;5349;41.554;23.274;2023-02-12T09:18:09;18.03;;;11.83;;
10603;SDS011;5349;41.554;23.274;2023-02-12T09:20:38;19.37;;;11.57;;
10603;SDS011;5349;41.554;23.274;2023-02-12T09:23:06;19.40;;;12.73;;
10603;SDS011;5349;41.554;23.274;2023-02-12T09:25:37;20.03;;;12.20;;
10603;SDS011;5349;41.554;23.274;2023-02-12T09:28:05;16.83;;;11.90;;
10603;SDS011;5349;41.554;23.274;2023-02-12T09:30:31;19.60;;;12.47;;
10603;SDS011;5349;41.554;23.274;2023-02-12T09:32:58;14.80;;;9.13;;
10603;SDS011;5349;41.554;23.274;2023-02-12T09:35:25;22.20;;;14.00;;
10603;SDS011;5349;41.554;23.274;2023-02-12T09:37:52;16.60;;;10.30;;
10603;SDS011;5349;41.554;23.274;2023-02-12T09:40:20;30.97;;;21.87;;
10603;SDS011;5349;41.554;23.274;2023-02-12T09:43:02;19.90;;;13.93;;
10603;SDS011;5349;41.554;23.274;2023-02-12T09:45:37;25.17;;;12.67;;
10603;SDS011;5349;41.554;23.274;2023-02-12T09:48:16;26.90;;;18.93;;
10603;SDS011;5349;41.554;23.274;2023-02-12T09:51:02;34.57;;;27.50;;
10603;SDS011;5349;41.554;23.274;2023-02-12T09:53:34;26.97;;;18.57;;
10603;SDS011;5349;41.554;23.274;2023-02-12T09:56:07;24.00;;;17.37;;
10603;SDS011;5349;41.554;23.274;2023-02-12T09:58:41;19.83;;;12.40;;
10603;SDS011;5349;41.554;23.274;2023-02-12T10:01:12;20.70;;;12.27;;
10603;SDS011;5349;41.554;23.274;2023-02-12T10:03:41;22.77;;;16.83;;
10603;SDS011;5349;41.554;23.274;2023-02-12T10:06:10;24.77;;;18.17;;
10603;SDS011;5349;41.554;23.274;2023-02-12T10:11:50;35.00;;;22.37;;
10603;SDS011;5349;41.554;23.274;2023-02-12T10:14:31;28.73;;;19.90;;
10603;SDS011;5349;41.554;23.274;2023-02-12T10:17:15;34.70;;;20.33;;
10603;SDS011;5349;41.554;23.274;2023-02-12T10:20:02;59.57;;;25.70;;
10603;SDS011;5349;41.554;23.274;2023-02-12T10:22:46;45.60;;;29.60;;
10603;SDS011;5349;41.554;23.274;2023-02-12T10:25:25;44.53;;;28.70;;
10603;SDS011;5349;41.554;23.274;2023-02-12T10:27:56;43.47;;;30.10;;
10603;SDS011;5349;41.554;23.274;2023-02-12T10:30:29;69.47;;;42.93;;
10603;SDS011;5349;41.554;23.274;2023-02-12T10:33:06;58.00;;;35.27;;
10603;SDS011;5349;41.554;23.274;2023-02-12T10:35:42;48.50;;;31.77;;
10603;SDS011;5349;41.554;23.274;2023-02-12T10:39:11;28.67;;;20.77;;
10603;SDS011;5349;41.554;23.274;2023-02-12T10:41:42;39.77;;;25.87;;
10603;SDS011;5349;41.554;23.274;2023-02-12T10:44:12;32.03;;;18.93;;
10603;SDS011;5349;41.554;23.274;2023-02-12T10:46:39;17.10;;;11.50;;
10603;SDS011;5349;41.554;23.274;2023-02-12T10:49:06;13.20;;;8.90;;
10603;SDS011;5349;41.554;23.274;2023-02-12T10:51:39;14.23;;;8.57;;
10603;SDS011;5349;41.554;23.274;2023-02-12T10:57:09;17.87;;;9.00;;
10603;SDS011;5349;41.554;23.274;2023-02-12T10:59:39;14.03;;;8.03;;
10603;SDS011;5349;41.554;23.274;2023-02-12T11:04:56;12.90;;;8.57;;
10603;SDS011;5349;41.554;23.274;2023-02-12T11:07:24;16.03;;;8.93;;
10603;SDS011;5349;41.554;23.274;2023-02-12T11:09:54;10.93;;;8.13;;
10603;SDS011;5349;41.554;23.274;2023-02-12T11:12:25;15.87;;;9.50;;
10603;SDS011;5349;41.554;23.274;2023-02-12T11:14:58;16.10;;;10.57;;
10603;SDS011;5349;41.554;23.274;2023-02-12T11:17:29;10.67;;;7.23;;
10603;SDS011;5349;41.554;23.274;2023-02-12T11:20:03;14.63;;;9.27;;
10603;SDS011;5349;41.554;23.274;2023-02-12T11:22:34;11.27;;;6.37;;
10603;SDS011;5349;41.554;23.274;2023-02-12T11:25:13;11.57;;;7.67;;
10603;SDS011;5349;41.554;23.274;2023-02-12T11:27:41;17.60;;;9.03;;
10603;SDS011;5349;41.554;23.274;2023-02-12T11:30:16;10.27;;;7.20;;
10603;SDS011;5349;41.554;23.274;2023-02-12T11:32:44;16.03;;;8.97;;
10603;SDS011;5349;41.554;23.274;2023-02-12T11:35:14;12.53;;;8.70;;
10603;SDS011;5349;41.554;23.274;2023-02-12T11:37:48;20.03;;;12.37;;
10603;SDS011;5349;41.554;23.274;2023-02-12T11:40:19;17.43;;;9.90;;
10603;SDS011;5349;41.554;23.274;2023-02-12T11:42:49;16.93;;;11.93;;
10603;SDS011;5349;41.554;23.274;2023-02-12T11:45:19;16.43;;;10.23;;
10603;SDS011;5349;41.554;23.274;2023-02-12T11:47:47;18.70;;;11.27;;
10603;SDS011;5349;41.554;23.274;2023-02-12T11:50:19;11.57;;;7.57;;
10603;SDS011;5349;41.554;23.274;2023-02-12T11:52:52;18.03;;;10.30;;
10603;SDS011;5349;41.554;23.274;2023-02-12T11:55:24;18.87;;;11.10;;
10603;SDS011;5349;41.554;23.274;2023-02-12T11:57:53;19.30;;;13.40;;
10603;SDS011;5349;41.554;23.274;2023-02-12T12:00:28;22.87;;;13.53;;
10603;SDS011;5349;41.554;23.274;2023-02-12T12:02:59;17.93;;;12.23;;
10603;SDS011;5349;41.554;23.274;2023-02-12T12:05:34;24.33;;;14.50;;
10603;SDS011;5349;41.554;23.274;2023-02-12T12:08:04;15.00;;;9.83;;
10603;SDS011;5349;41.554;23.274;2023-02-12T12:10:40;47.87;;;26.17;;
10603;SDS011;5349;41.554;23.274;2023-02-12T12:13:13;22.93;;;15.33;;
10603;SDS011;5349;41.554;23.274;2023-02-12T12:15:47;21.10;;;13.63;;
10603;SDS011;5349;41.554;23.274;2023-02-12T12:18:37;22.37;;;14.20;;
10603;SDS011;5349;41.554;23.274;2023-02-12T12:21:29;21.97;;;14.97;;
10603;SDS011;5349;41.554;23.274;2023-02-12T12:24:02;15.37;;;9.60;;
10603;SDS011;5349;41.554;23.274;2023-02-12T12:26:37;19.70;;;11.37;;
10603;SDS011;5349;41.554;23.274;2023-02-12T12:29:10;13.13;;;7.80;;
10603;SDS011;5349;41.554;23.274;2023-02-12T12:31:43;21.13;;;13.77;;
10603;SDS011;5349;41.554;23.274;2023-02-12T12:34:13;19.03;;;12.13;;
10603;SDS011;5349;41.554;23.274;2023-02-12T12:36:48;18.13;;;13.10;;
10603;SDS011;5349;41.554;23.274;2023-02-12T12:39:27;25.33;;;16.93;;
10603;SDS011;5349;41.554;23.274;2023-02-12T12:42:15;23.43;;;15.27;;
10603;SDS011;5349;41.554;23.274;2023-02-12T12:45:05;17.23;;;11.40;;
10603;SDS011;5349;41.554;23.274;2023-02-12T12:47:45;30.47;;;18.83;;
10603;SDS011;5349;41.554;23.274;2023-02-12T12:50:28;20.00;;;15.10;;
10603;SDS011;5349;41.554;23.274;2023-02-12T12:53:22;18.73;;;14.37;;
10603;SDS011;5349;41.554;23.274;2023-02-12T12:56:16;20.83;;;13.20;;
10603;SDS011;5349;41.554;23.274;2023-02-12T12:59:01;25.67;;;16.43;;
10603;SDS011;5349;41.554;23.274;2023-02-12T13:01:53;16.70;;;10.53;;
10603;SDS011;5349;41.554;23.274;2023-02-12T13:04:46;27.43;;;15.67;;
10603;SDS011;5349;41.554;23.274;2023-02-12T13:07:36;17.67;;;10.30;;
10603;SDS011;5349;41.554;23.274;2023-02-12T13:10:24;15.83;;;9.83;;
10603;SDS011;5349;41.554;23.274;2023-02-12T13:13:05;16.53;;;11.03;;
10603;SDS011;5349;41.554;23.274;2023-02-12T13:15:42;20.63;;;14.30;;
10603;SDS011;5349;41.554;23.274;2023-02-12T13:18:18;22.70;;;16.37;;
10603;SDS011;5349;41.554;23.274;2023-02-12T13:20:59;29.73;;;18.53;;
10603;SDS011;5349;41.554;23.274;2023-02-12T13:23:37;22.17;;;15.27;;
10603;SDS011;5349;41.554;23.274;2023-02-12T13:26:13;27.27;;;18.33;;
10603;SDS011;5349;41.554;23.274;2023-02-12T13:28:45;28.83;;;19.10;;
10603;SDS011;5349;41.554;23.274;2023-02-12T13:31:19;31.00;;;19.97;;
10603;SDS011;5349;41.554;23.274;2023-02-12T13:33:49;22.10;;;15.53;;
10603;SDS011;5349;41.554;23.274;2023-02-12T13:36:18;25.57;;;19.33;;
10603;SDS011;5349;41.554;23.274;2023-02-12T13:38:46;20.43;;;14.97;;
10603;SDS011;5349;41.554;23.274;2023-02-12T13:41:17;21.60;;;16.80;;
10603;SDS011;5349;41.554;23.274;2023-02-12T13:43:54;18.97;;;12.63;;
10603;SDS011;5349;41.554;23.274;2023-02-12T13:46:30;18.77;;;14.27;;
10603;SDS011;5349;41.554;23.274;2023-02-12T13:49:09;18.87;;;13.23;;
10603;SDS011;5349;41.554;23.274;2023-02-12T13:51:46;23.50;;;16.13;;
10603;SDS011;5349;41.554;23.274;2023-02-12T13:54:21;18.40;;;14.37;;
10603;SDS011;5349;41.554;23.274;2023-02-12T13:56:58;15.80;;;11.27;;
10603;SDS011;5349;41.554;23.274;2023-02-12T13:59:39;22.80;;;13.73;;
10603;SDS011;5349;41.554;23.274;2023-02-12T14:05:14;19.20;;;11.83;;
10603;SDS011;5349;41.554;23.274;2023-02-12T14:07:45;24.60;;;16.67;;
10603;SDS011;5349;41.554;23.274;2023-02-12T14:10:21;22.03;;;15.73;;
10603;SDS011;5349;41.554;23.274;2023-02-12T14:12:51;24.03;;;15.27;;
10603;SDS011;5349;41.554;23.274;2023-02-12T14:15:25;26.57;;;17.53;;
10603;SDS011;5349;41.554;23.274;2023-02-12T14:18:04;33.33;;;17.83;;
10603;SDS011;5349;41.554;23.274;2023-02-12T14:20:46;33.37;;;20.73;;
10603;SDS011;5349;41.554;23.274;2023-02-12T14:23:22;25.33;;;18.67;;
10603;SDS011;5349;41.554;23.274;2023-02-12T14:25:57;23.70;;;16.60;;
10603;SDS011;5349;41.554;23.274;2023-02-12T14:28:28;24.80;;;16.93;;
10603;SDS011;5349;41.554;23.274;2023-02-12T14:37:13;22.87;;;14.83;;
10603;SDS011;5349;41.554;23.274;2023-02-12T14:42:57;26.70;;;18.23;;
10603;SDS011;5349;41.554;23.274;2023-02-12T14:45:31;24.20;;;14.27;;
10603;SDS011;5349;41.554;23.274;2023-02-12T14:47:59;28.87;;;18.97;;
10603;SDS011;5349;41.554;23.274;2023-02-12T14:50:29;25.00;;;17.90;;
10603;SDS011;5349;41.554;23.274;2023-02-12T14:55:55;27.27;;;18.40;;
10603;SDS011;5349;41.554;23.274;2023-02-12T14:58:24;27.90;;;19.33;;
10603;SDS011;5349;41.554;23.274;2023-02-12T15:00:55;23.90;;;17.63;;
10603;SDS011;5349;41.554;23.274;2023-02-12T15:03:26;39.50;;;25.97;;
10603;SDS011;5349;41.554;23.274;2023-02-12T15:06:00;29.00;;;20.30;;
10603;SDS011;5349;41.554;23.274;2023-02-12T15:08:33;32.93;;;20.43;;
10603;SDS011;5349;41.554;23.274;2023-02-12T15:11:22;27.43;;;19.20;;
10603;SDS011;5349;41.554;23.274;2023-02-12T15:13:56;29.30;;;20.00;;
10603;SDS011;5349;41.554;23.274;2023-02-12T15:16:30;21.13;;;14.13;;
10603;SDS011;5349;41.554;23.274;2023-02-12T15:19:11;23.13;;;16.17;;
10603;SDS011;5349;41.554;23.274;2023-02-12T15:21:45;23.80;;;15.90;;